sensor_id;sensor_type;location;lat;lon;timestamp;P1;durP1;ratioP1;P2;durP2;ratioP2
11711;SDS011;5912;51.034;6.984;2023-05-10T00:01:32;6.72;;;5.78;;
11711;SDS011;5912;51.034;6.984;2023-05-10T00:03:57;7.38;;;6.00;;
11711;SDS011;5912;51.034;6.984;2023-05-10T00:06:23;7.20;;;5.97;;
11711;SDS011;5912;51.034;6.984;2023-05-10T00:08:48;7.05;;;6.00;;
11711;SDS011;5912;51.034;6.984;2023-05-10T00:11:13;7.38;;;5.97;;
11711;SDS011;5912;51.034;6.984;2023-05-10T00:13:38;7.70;;;6.28;;
11711;SDS011;5912;51.034;6.984;2023-05-10T00:16:04;7.03;;;6.32;;
11711;SDS011;5912;51.034;6.984;2023-05-10T00:18:30;7.47;;;6.18;;
11711;SDS011;5912;51.034;6.984;2023-05-10T00:20:55;7.45;;;6.15;;
11711;SDS011;5912;51.034;6.984;2023-05-10T00:23:21;7.88;;;6.85;;
11711;SDS011;5912;51.034;6.984;2023-05-10T00:25:46;7.00;;;5.95;;
11711;SDS011;5912;51.034;6.984;2023-05-10T00:28:11;6.70;;;5.95;;
11711;SDS011;5912;51.034;6.984;2023-05-10T00:30:37;7.90;;;7.03;;
11711;SDS011;5912;51.034;6.984;2023-05-10T00:33:02;9.00;;;7.68;;
11711;SDS011;5912;51.034;6.984;2023-05-10T00:35:27;10.15;;;7.47;;
11711;SDS011;5912;51.034;6.984;2023-05-10T00:37:53;7.85;;;7.05;;
11711;SDS011;5912;51.034;6.984;2023-05-10T00:40:18;8.38;;;7.15;;
11711;SDS011;5912;51.034;6.984;2023-05-10T00:42:43;8.15;;;7.18;;
11711;SDS011;5912;51.034;6.984;2023-05-10T00:45:09;9.57;;;7.63;;
11711;SDS011;5912;51.034;6.984;2023-05-10T00:47:34;8.82;;;7.22;;
11711;SDS011;5912;51.034;6.984;2023-05-10T00:50:00;9.07;;;7.10;;
11711;SDS011;5912;51.034;6.984;2023-05-10T00:52:26;8.65;;;7.30;;
11711;SDS011;5912;51.034;6.984;2023-05-10T00:54:52;9.07;;;7.30;;
11711;SDS011;5912;51.034;6.984;2023-05-10T00:57:18;10.43;;;7.60;;
11711;SDS011;5912;51.034;6.984;2023-05-10T00:59:44;9.60;;;7.80;;
11711;SDS011;5912;51.034;6.984;2023-05-10T01:02:10;9.63;;;7.60;;
11711;SDS011;5912;51.034;6.984;2023-05-10T01:04:35;7.20;;;6.47;;
11711;SDS011;5912;51.034;6.984;2023-05-10T01:07:01;8.95;;;7.30;;
11711;SDS011;5912;51.034;6.984;2023-05-10T01:09:27;10.63;;;7.85;;
11711;SDS011;5912;51.034;6.984;2023-05-10T01:11:52;8.95;;;7.55;;
11711;SDS011;5912;51.034;6.984;2023-05-10T01:14:19;10.20;;;7.38;;
11711;SDS011;5912;51.034;6.984;2023-05-10T01:16:45;8.15;;;7.18;;
11711;SDS011;5912;51.034;6.984;2023-05-10T01:19:12;9.90;;;7.85;;
11711;SDS011;5912;51.034;6.984;2023-05-10T01:33:26;8.80;;;7.68;;
11711;SDS011;5912;51.034;6.984;2023-05-10T01:41:47;10.02;;;7.22;;
11711;SDS011;5912;51.034;6.984;2023-05-10T01:44:33;8.10;;;6.68;;
11711;SDS011;5912;51.034;6.984;2023-05-10T01:47:12;7.90;;;6.07;;
11711;SDS011;5912;51.034;6.984;2023-05-10T01:49:43;10.23;;;6.65;;
11711;SDS011;5912;51.034;6.984;2023-05-10T01:52:12;7.38;;;5.97;;
11711;SDS011;5912;51.034;6.984;2023-05-10T01:54:41;7.25;;;5.75;;
11711;SDS011;5912;51.034;6.984;2023-05-10T01:57:14;8.07;;;6.43;;
11711;SDS011;5912;51.034;6.984;2023-05-10T01:59:43;7.40;;;5.68;;
11711;SDS011;5912;51.034;6.984;2023-05-10T02:02:14;5.35;;;4.85;;
11711;SDS011;5912;51.034;6.984;2023-05-10T02:04:41;6.53;;;5.05;;
11711;SDS011;5912;51.034;6.984;2023-05-10T02:07:07;6.90;;;5.03;;
11711;SDS011;5912;51.034;6.984;2023-05-10T02:09:34;6.80;;;6.15;;
11711;SDS011;5912;51.034;6.984;2023-05-10T02:12:00;7.10;;;4.88;;
11711;SDS011;5912;51.034;6.984;2023-05-10T02:14:27;5.93;;;5.07;;
11711;SDS011;5912;51.034;6.984;2023-05-10T02:16:55;6.10;;;4.55;;
11711;SDS011;5912;51.034;6.984;2023-05-10T02:19:22;4.38;;;3.40;;
11711;SDS011;5912;51.034;6.984;2023-05-10T02:21:48;3.58;;;3.13;;
11711;SDS011;5912;51.034;6.984;2023-05-10T02:24:16;4.00;;;3.13;;
11711;SDS011;5912;51.034;6.984;2023-05-10T02:26:42;4.28;;;2.80;;
11711;SDS011;5912;51.034;6.984;2023-05-10T02:29:10;3.55;;;2.92;;
11711;SDS011;5912;51.034;6.984;2023-05-10T02:31:37;3.78;;;3.10;;
11711;SDS011;5912;51.034;6.984;2023-05-10T02:34:04;3.38;;;2.78;;
11711;SDS011;5912;51.034;6.984;2023-05-10T02:36:32;4.10;;;2.72;;
11711;SDS011;5912;51.034;6.984;2023-05-10T02:38:58;3.75;;;2.90;;
11711;SDS011;5912;51.034;6.984;2023-05-10T02:41:26;3.13;;;2.90;;
11711;SDS011;5912;51.034;6.984;2023-05-10T02:43:55;3.38;;;3.08;;
11711;SDS011;5912;51.034;6.984;2023-05-10T02:46:24;4.68;;;3.17;;
11711;SDS011;5912;51.034;6.984;2023-05-10T02:48:49;3.28;;;2.70;;
11711;SDS011;5912;51.034;6.984;2023-05-10T02:51:15;4.15;;;2.60;;
11711;SDS011;5912;51.034;6.984;2023-05-10T02:53:43;4.55;;;2.75;;
11711;SDS011;5912;51.034;6.984;2023-05-10T02:56:14;4.93;;;3.38;;
11711;SDS011;5912;51.034;6.984;2023-05-10T02:58:47;3.58;;;3.22;;
11711;SDS011;5912;51.034;6.984;2023-05-10T03:01:13;5.65;;;4.65;;
11711;SDS011;5912;51.034;6.984;2023-05-10T03:03:38;5.57;;;4.05;;
11711;SDS011;5912;51.034;6.984;2023-05-10T03:06:03;4.07;;;3.67;;
11711;SDS011;5912;51.034;6.984;2023-05-10T03:08:29;4.55;;;4.03;;
11711;SDS011;5912;51.034;6.984;2023-05-10T03:16:27;4.10;;;3.63;;
11711;SDS011;5912;51.034;6.984;2023-05-10T03:19:27;5.07;;;3.90;;
11711;SDS011;5912;51.034;6.984;2023-05-10T03:21:59;4.30;;;3.80;;
11711;SDS011;5912;51.034;6.984;2023-05-10T03:24:28;4.82;;;4.32;;
11711;SDS011;5912;51.034;6.984;2023-05-10T03:26:55;4.43;;;3.65;;
11711;SDS011;5912;51.034;6.984;2023-05-10T03:29:24;4.05;;;3.60;;
11711;SDS011;5912;51.034;6.984;2023-05-10T03:31:51;4.82;;;3.65;;
11711;SDS011;5912;51.034;6.984;2023-05-10T03:34:16;4.07;;;3.50;;
11711;SDS011;5912;51.034;6.984;2023-05-10T03:36:42;6.78;;;3.78;;
11711;SDS011;5912;51.034;6.984;2023-05-10T03:39:07;4.13;;;3.72;;
11711;SDS011;5912;51.034;6.984;2023-05-10T03:41:33;6.00;;;4.22;;
11711;SDS011;5912;51.034;6.984;2023-05-10T03:43:58;5.18;;;4.15;;
11711;SDS011;5912;51.034;6.984;2023-05-10T03:46:24;4.10;;;3.70;;
11711;SDS011;5912;51.034;6.984;2023-05-10T03:48:49;5.38;;;3.83;;
11711;SDS011;5912;51.034;6.984;2023-05-10T03:51:14;5.15;;;4.10;;
11711;SDS011;5912;51.034;6.984;2023-05-10T03:53:39;5.75;;;4.40;;
11711;SDS011;5912;51.034;6.984;2023-05-10T03:56:05;6.22;;;4.65;;
11711;SDS011;5912;51.034;6.984;2023-05-10T03:58:30;5.10;;;4.28;;
11711;SDS011;5912;51.034;6.984;2023-05-10T04:00:55;5.32;;;4.40;;
11711;SDS011;5912;51.034;6.984;2023-05-10T04:03:21;5.82;;;4.75;;
11711;SDS011;5912;51.034;6.984;2023-05-10T04:05:46;6.10;;;4.60;;
11711;SDS011;5912;51.034;6.984;2023-05-10T04:08:11;4.93;;;4.18;;
11711;SDS011;5912;51.034;6.984;2023-05-10T04:10:37;5.43;;;4.30;;
11711;SDS011;5912;51.034;6.984;2023-05-10T04:13:03;5.28;;;4.78;;
11711;SDS011;5912;51.034;6.984;2023-05-10T04:15:28;6.00;;;4.63;;
11711;SDS011;5912;51.034;6.984;2023-05-10T04:17:54;6.80;;;5.15;;
11711;SDS011;5912;51.034;6.984;2023-05-10T04:20:19;5.60;;;4.88;;
11711;SDS011;5912;51.034;6.984;2023-05-10T04:22:44;8.02;;;5.35;;
11711;SDS011;5912;51.034;6.984;2023-05-10T04:25:10;6.25;;;5.20;;
11711;SDS011;5912;51.034;6.984;2023-05-10T04:27:35;6.28;;;5.18;;
11711;SDS011;5912;51.034;6.984;2023-05-10T04:30:01;7.85;;;5.90;;
11711;SDS011;5912;51.034;6.984;2023-05-10T04:32:27;8.45;;;6.00;;
11711;SDS011;5912;51.034;6.984;2023-05-10T04:34:53;7.57;;;5.63;;
11711;SDS011;5912;51.034;6.984;2023-05-10T04:37:18;8.35;;;6.03;;
11711;SDS011;5912;51.034;6.984;2023-05-10T04:39:43;10.13;;;7.68;;
11711;SDS011;5912;51.034;6.984;2023-05-10T04:42:09;9.00;;;6.60;;
11711;SDS011;5912;51.034;6.984;2023-05-10T04:44:34;9.65;;;7.35;;
11711;SDS011;5912;51.034;6.984;2023-05-10T04:47:00;11.70;;;7.40;;
11711;SDS011;5912;51.034;6.984;2023-05-10T04:49:27;11.80;;;8.70;;
11711;SDS011;5912;51.034;6.984;2023-05-10T04:51:52;12.60;;;9.07;;
11711;SDS011;5912;51.034;6.984;2023-05-10T04:54:18;11.77;;;8.95;;
11711;SDS011;5912;51.034;6.984;2023-05-10T04:56:43;11.73;;;9.27;;
11711;SDS011;5912;51.034;6.984;2023-05-10T04:59:08;13.80;;;10.90;;
11711;SDS011;5912;51.034;6.984;2023-05-10T05:01:33;12.88;;;9.40;;
11711;SDS011;5912;51.034;6.984;2023-05-10T05:03:59;12.73;;;9.48;;
11711;SDS011;5912;51.034;6.984;2023-05-10T05:06:24;12.85;;;8.88;;
11711;SDS011;5912;51.034;6.984;2023-05-10T05:08:50;11.20;;;8.13;;
11711;SDS011;5912;51.034;6.984;2023-05-10T05:11:16;12.52;;;9.40;;
11711;SDS011;5912;51.034;6.984;2023-05-10T05:13:42;14.45;;;9.48;;
11711;SDS011;5912;51.034;6.984;2023-05-10T05:16:07;12.60;;;8.85;;
11711;SDS011;5912;51.034;6.984;2023-05-10T05:18:32;12.50;;;9.35;;
11711;SDS011;5912;51.034;6.984;2023-05-10T05:20:58;11.45;;;8.95;;
11711;SDS011;5912;51.034;6.984;2023-05-10T05:23:23;13.35;;;8.82;;
11711;SDS011;5912;51.034;6.984;2023-05-10T05:25:51;11.85;;;8.45;;
11711;SDS011;5912;51.034;6.984;2023-05-10T05:28:17;14.23;;;8.50;;
11711;SDS011;5912;51.034;6.984;2023-05-10T05:30:42;11.68;;;8.15;;
11711;SDS011;5912;51.034;6.984;2023-05-10T05:33:08;9.80;;;7.65;;
11711;SDS011;5912;51.034;6.984;2023-05-10T05:35:33;10.57;;;8.10;;
11711;SDS011;5912;51.034;6.984;2023-05-10T05:37:58;11.40;;;8.27;;
11711;SDS011;5912;51.034;6.984;2023-05-10T05:40:23;9.05;;;7.40;;
11711;SDS011;5912;51.034;6.984;2023-05-10T05:42:49;11.40;;;8.40;;
11711;SDS011;5912;51.034;6.984;2023-05-10T05:45:14;9.02;;;7.10;;
11711;SDS011;5912;51.034;6.984;2023-05-10T05:47:40;8.70;;;6.68;;
11711;SDS011;5912;51.034;6.984;2023-05-10T05:50:05;8.18;;;6.57;;
11711;SDS011;5912;51.034;6.984;2023-05-10T05:52:31;9.63;;;6.93;;
11711;SDS011;5912;51.034;6.984;2023-05-10T05:54:56;10.80;;;8.43;;
11711;SDS011;5912;51.034;6.984;2023-05-10T05:57:22;9.30;;;7.47;;
11711;SDS011;5912;51.034;6.984;2023-05-10T05:59:47;8.88;;;6.82;;
11711;SDS011;5912;51.034;6.984;2023-05-10T06:02:13;11.73;;;7.53;;
11711;SDS011;5912;51.034;6.984;2023-05-10T06:04:38;10.32;;;7.40;;
11711;SDS011;5912;51.034;6.984;2023-05-10T06:07:03;11.68;;;7.80;;
11711;SDS011;5912;51.034;6.984;2023-05-10T06:09:29;12.80;;;8.10;;
11711;SDS011;5912;51.034;6.984;2023-05-10T06:11:54;11.40;;;7.85;;
11711;SDS011;5912;51.034;6.984;2023-05-10T06:14:20;15.30;;;9.38;;
11711;SDS011;5912;51.034;6.984;2023-05-10T06:16:45;14.57;;;8.55;;
11711;SDS011;5912;51.034;6.984;2023-05-10T06:19:10;13.93;;;8.55;;
11711;SDS011;5912;51.034;6.984;2023-05-10T06:21:36;11.07;;;8.07;;
11711;SDS011;5912;51.034;6.984;2023-05-10T06:24:01;12.95;;;8.38;;
11711;SDS011;5912;51.034;6.984;2023-05-10T06:26:27;11.57;;;8.02;;
11711;SDS011;5912;51.034;6.984;2023-05-10T06:28:53;9.80;;;7.63;;
11711;SDS011;5912;51.034;6.984;2023-05-10T06:31:18;14.45;;;8.68;;
11711;SDS011;5912;51.034;6.984;2023-05-10T06:33:43;11.95;;;8.40;;
11711;SDS011;5912;51.034;6.984;2023-05-10T06:36:09;15.13;;;9.15;;
11711;SDS011;5912;51.034;6.984;2023-05-10T06:38:34;12.05;;;8.40;;
11711;SDS011;5912;51.034;6.984;2023-05-10T06:40:59;14.38;;;8.90;;
11711;SDS011;5912;51.034;6.984;2023-05-10T06:43:25;11.35;;;8.10;;
11711;SDS011;5912;51.034;6.984;2023-05-10T06:45:51;13.73;;;8.35;;
11711;SDS011;5912;51.034;6.984;2023-05-10T06:48:16;18.45;;;9.82;;
11711;SDS011;5912;51.034;6.984;2023-05-10T06:50:42;13.63;;;8.15;;
11711;SDS011;5912;51.034;6.984;2023-05-10T06:53:07;12.85;;;9.05;;
11711;SDS011;5912;51.034;6.984;2023-05-10T06:55:32;13.13;;;9.35;;
11711;SDS011;5912;51.034;6.984;2023-05-10T06:57:58;14.80;;;9.52;;
11711;SDS011;5912;51.034;6.984;2023-05-10T07:00:23;12.23;;;8.25;;
11711;SDS011;5912;51.034;6.984;2023-05-10T07:02:48;13.88;;;9.13;;
11711;SDS011;5912;51.034;6.984;2023-05-10T07:05:14;14.48;;;8.57;;
11711;SDS011;5912;51.034;6.984;2023-05-10T07:07:40;14.32;;;8.65;;
11711;SDS011;5912;51.034;6.984;2023-05-10T07:10:05;11.30;;;8.18;;
11711;SDS011;5912;51.034;6.984;2023-05-10T07:12:32;10.77;;;7.43;;
11711;SDS011;5912;51.034;6.984;2023-05-10T07:14:57;13.02;;;9.15;;
11711;SDS011;5912;51.034;6.984;2023-05-10T07:17:23;12.85;;;8.15;;
11711;SDS011;5912;51.034;6.984;2023-05-10T07:19:48;15.00;;;8.40;;
11711;SDS011;5912;51.034;6.984;2023-05-10T07:22:14;16.08;;;9.43;;
11711;SDS011;5912;51.034;6.984;2023-05-10T07:24:40;12.68;;;8.90;;
11711;SDS011;5912;51.034;6.984;2023-05-10T07:27:05;12.90;;;7.70;;
11711;SDS011;5912;51.034;6.984;2023-05-10T07:29:31;11.65;;;8.02;;
11711;SDS011;5912;51.034;6.984;2023-05-10T07:31:56;11.20;;;8.73;;
11711;SDS011;5912;51.034;6.984;2023-05-10T07:34:21;10.95;;;7.60;;
11711;SDS011;5912;51.034;6.984;2023-05-10T07:36:47;11.43;;;7.63;;
11711;SDS011;5912;51.034;6.984;2023-05-10T07:39:12;10.52;;;8.35;;
11711;SDS011;5912;51.034;6.984;2023-05-10T07:41:37;10.70;;;7.85;;
11711;SDS011;5912;51.034;6.984;2023-05-10T07:44:03;16.42;;;7.88;;
11711;SDS011;5912;51.034;6.984;2023-05-10T07:46:29;8.57;;;7.30;;
11711;SDS011;5912;51.034;6.984;2023-05-10T07:48:54;11.43;;;7.78;;
11711;SDS011;5912;51.034;6.984;2023-05-10T07:51:20;9.57;;;7.55;;
11711;SDS011;5912;51.034;6.984;2023-05-10T07:53:46;7.38;;;6.40;;
11711;SDS011;5912;51.034;6.984;2023-05-10T07:58:48;9.77;;;6.80;;
11711;SDS011;5912;51.034;6.984;2023-05-10T08:01:13;8.80;;;7.20;;
11711;SDS011;5912;51.034;6.984;2023-05-10T08:03:39;12.35;;;7.35;;
11711;SDS011;5912;51.034;6.984;2023-05-10T08:06:04;10.82;;;7.80;;
11711;SDS011;5912;51.034;6.984;2023-05-10T08:08:30;10.60;;;7.65;;
11711;SDS011;5912;51.034;6.984;2023-05-10T08:10:59;8.65;;;7.05;;
11711;SDS011;5912;51.034;6.984;2023-05-10T08:13:24;6.38;;;5.68;;
11711;SDS011;5912;51.034;6.984;2023-05-10T08:15:49;8.13;;;6.25;;
11711;SDS011;5912;51.034;6.984;2023-05-10T08:18:17;8.68;;;6.82;;
11711;SDS011;5912;51.034;6.984;2023-05-10T08:20:43;10.35;;;7.55;;
11711;SDS011;5912;51.034;6.984;2023-05-10T08:23:08;8.68;;;6.65;;
11711;SDS011;5912;51.034;6.984;2023-05-10T08:25:33;12.73;;;7.50;;
11711;SDS011;5912;51.034;6.984;2023-05-10T08:27:58;9.02;;;7.45;;
11711;SDS011;5912;51.034;6.984;2023-05-10T08:30:24;10.88;;;7.22;;
11711;SDS011;5912;51.034;6.984;2023-05-10T08:32:49;11.15;;;7.80;;
11711;SDS011;5912;51.034;6.984;2023-05-10T08:35:15;10.77;;;7.38;;
11711;SDS011;5912;51.034;6.984;2023-05-10T08:37:40;9.60;;;7.60;;
11711;SDS011;5912;51.034;6.984;2023-05-10T08:40:06;11.48;;;7.32;;
11711;SDS011;5912;51.034;6.984;2023-05-10T08:42:34;11.88;;;7.38;;
11711;SDS011;5912;51.034;6.984;2023-05-10T08:45:02;9.60;;;7.35;;
11711;SDS011;5912;51.034;6.984;2023-05-10T08:47:29;9.93;;;6.93;;
11711;SDS011;5912;51.034;6.984;2023-05-10T08:49:55;9.82;;;7.53;;
11711;SDS011;5912;51.034;6.984;2023-05-10T08:52:22;9.48;;;7.63;;
11711;SDS011;5912;51.034;6.984;2023-05-10T08:54:51;11.48;;;7.82;;
11711;SDS011;5912;51.034;6.984;2023-05-10T08:57:16;8.30;;;6.53;;
11711;SDS011;5912;51.034;6.984;2023-05-10T08:59:43;10.05;;;6.88;;
11711;SDS011;5912;51.034;6.984;2023-05-10T09:02:09;9.15;;;7.68;;
11711;SDS011;5912;51.034;6.984;2023-05-10T09:04:36;10.00;;;8.13;;
11711;SDS011;5912;51.034;6.984;2023-05-10T09:07:01;12.35;;;9.00;;
11711;SDS011;5912;51.034;6.984;2023-05-10T09:09:27;9.68;;;7.90;;
11711;SDS011;5912;51.034;6.984;2023-05-10T09:11:53;11.68;;;9.10;;
11711;SDS011;5912;51.034;6.984;2023-05-10T09:14:19;11.90;;;9.00;;
11711;SDS011;5912;51.034;6.984;2023-05-10T09:16:44;13.10;;;9.10;;
11711;SDS011;5912;51.034;6.984;2023-05-10T09:19:10;13.63;;;9.00;;
11711;SDS011;5912;51.034;6.984;2023-05-10T09:21:36;9.70;;;7.95;;
11711;SDS011;5912;51.034;6.984;2023-05-10T09:24:05;12.45;;;9.43;;
11711;SDS011;5912;51.034;6.984;2023-05-10T09:26:31;14.27;;;10.02;;
11711;SDS011;5912;51.034;6.984;2023-05-10T09:28:57;13.68;;;9.20;;
11711;SDS011;5912;51.034;6.984;2023-05-10T09:31:24;13.32;;;8.73;;
11711;SDS011;5912;51.034;6.984;2023-05-10T09:33:50;16.13;;;9.68;;
11711;SDS011;5912;51.034;6.984;2023-05-10T09:36:17;14.82;;;9.35;;
11711;SDS011;5912;51.034;6.984;2023-05-10T09:38:46;12.75;;;9.75;;
11711;SDS011;5912;51.034;6.984;2023-05-10T09:41:23;15.15;;;9.90;;
11711;SDS011;5912;51.034;6.984;2023-05-10T09:43:48;14.10;;;9.40;;
11711;SDS011;5912;51.034;6.984;2023-05-10T09:46:15;17.88;;;10.27;;
11711;SDS011;5912;51.034;6.984;2023-05-10T09:48:45;14.68;;;11.07;;
11711;SDS011;5912;51.034;6.984;2023-05-10T09:51:21;14.65;;;9.82;;
11711;SDS011;5912;51.034;6.984;2023-05-10T09:53:48;15.10;;;10.05;;
11711;SDS011;5912;51.034;6.984;2023-05-10T09:56:32;13.45;;;9.73;;
11711;SDS011;5912;51.034;6.984;2023-05-10T09:59:03;14.20;;;9.13;;
11711;SDS011;5912;51.034;6.984;2023-05-10T10:01:28;15.90;;;10.20;;
11711;SDS011;5912;51.034;6.984;2023-05-10T10:03:55;15.55;;;11.15;;
11711;SDS011;5912;51.034;6.984;2023-05-10T10:06:22;20.02;;;11.82;;
11711;SDS011;5912;51.034;6.984;2023-05-10T10:08:48;14.55;;;9.98;;
11711;SDS011;5912;51.034;6.984;2023-05-10T10:11:14;11.52;;;8.52;;
11711;SDS011;5912;51.034;6.984;2023-05-10T10:13:39;14.25;;;9.77;;
11711;SDS011;5912;51.034;6.984;2023-05-10T10:16:05;14.77;;;10.40;;
11711;SDS011;5912;51.034;6.984;2023-05-10T10:18:33;14.77;;;10.77;;
11711;SDS011;5912;51.034;6.984;2023-05-10T10:20:58;14.52;;;9.70;;
11711;SDS011;5912;51.034;6.984;2023-05-10T10:23:24;13.40;;;9.23;;
11711;SDS011;5912;51.034;6.984;2023-05-10T10:25:49;11.63;;;8.65;;
11711;SDS011;5912;51.034;6.984;2023-05-10T10:28:22;13.27;;;9.57;;
11711;SDS011;5912;51.034;6.984;2023-05-10T10:30:56;11.70;;;8.95;;
11711;SDS011;5912;51.034;6.984;2023-05-10T10:33:39;13.43;;;9.45;;
11711;SDS011;5912;51.034;6.984;2023-05-10T10:36:16;11.70;;;8.38;;
11711;SDS011;5912;51.034;6.984;2023-05-10T10:41:10;10.90;;;8.63;;
11711;SDS011;5912;51.034;6.984;2023-05-10T10:44:20;9.23;;;7.35;;
11711;SDS011;5912;51.034;6.984;2023-05-10T10:52:15;11.85;;;8.23;;
11711;SDS011;5912;51.034;6.984;2023-05-10T10:54:51;13.35;;;8.93;;
11711;SDS011;5912;51.034;6.984;2023-05-10T10:57:26;10.60;;;8.23;;
11711;SDS011;5912;51.034;6.984;2023-05-10T11:05:36;9.77;;;7.93;;
11711;SDS011;5912;51.034;6.984;2023-05-10T11:10:36;12.48;;;9.20;;
11711;SDS011;5912;51.034;6.984;2023-05-10T11:13:02;11.10;;;8.23;;
11711;SDS011;5912;51.034;6.984;2023-05-10T11:15:30;11.63;;;7.25;;
11711;SDS011;5912;51.034;6.984;2023-05-10T11:17:56;11.07;;;8.13;;
11711;SDS011;5912;51.034;6.984;2023-05-10T11:20:21;10.07;;;6.82;;
11711;SDS011;5912;51.034;6.984;2023-05-10T11:22:53;8.90;;;6.38;;
11711;SDS011;5912;51.034;6.984;2023-05-10T11:25:19;7.30;;;5.72;;
11711;SDS011;5912;51.034;6.984;2023-05-10T11:27:51;10.45;;;7.47;;
11711;SDS011;5912;51.034;6.984;2023-05-10T11:30:16;10.15;;;7.28;;
11711;SDS011;5912;51.034;6.984;2023-05-10T11:32:42;10.05;;;6.97;;
11711;SDS011;5912;51.034;6.984;2023-05-10T11:35:08;9.32;;;6.38;;
11711;SDS011;5912;51.034;6.984;2023-05-10T11:37:34;7.05;;;5.15;;
11711;SDS011;5912;51.034;6.984;2023-05-10T11:40:00;6.65;;;4.45;;
11711;SDS011;5912;51.034;6.984;2023-05-10T11:42:27;5.03;;;4.47;;
11711;SDS011;5912;51.034;6.984;2023-05-10T11:44:53;5.72;;;4.55;;
11711;SDS011;5912;51.034;6.984;2023-05-10T11:47:18;5.75;;;4.10;;
11711;SDS011;5912;51.034;6.984;2023-05-10T11:49:45;8.55;;;5.15;;
11711;SDS011;5912;51.034;6.984;2023-05-10T11:52:11;8.50;;;4.60;;
11711;SDS011;5912;51.034;6.984;2023-05-10T11:54:36;5.57;;;4.57;;
11711;SDS011;5912;51.034;6.984;2023-05-10T11:57:02;8.02;;;4.90;;
11711;SDS011;5912;51.034;6.984;2023-05-10T11:59:27;5.55;;;4.88;;
11711;SDS011;5912;51.034;6.984;2023-05-10T12:01:53;5.20;;;3.90;;
11711;SDS011;5912;51.034;6.984;2023-05-10T12:04:18;4.57;;;3.90;;
11711;SDS011;5912;51.034;6.984;2023-05-10T12:06:44;4.68;;;3.70;;
11711;SDS011;5912;51.034;6.984;2023-05-10T12:09:11;4.25;;;3.20;;
11711;SDS011;5912;51.034;6.984;2023-05-10T12:11:38;3.80;;;3.08;;
11711;SDS011;5912;51.034;6.984;2023-05-10T12:14:05;3.03;;;2.65;;
11711;SDS011;5912;51.034;6.984;2023-05-10T12:16:30;3.63;;;2.58;;
11711;SDS011;5912;51.034;6.984;2023-05-10T12:18:58;3.17;;;2.67;;
11711;SDS011;5912;51.034;6.984;2023-05-10T12:21:24;2.85;;;2.28;;
11711;SDS011;5912;51.034;6.984;2023-05-10T12:23:51;2.55;;;2.20;;
11711;SDS011;5912;51.034;6.984;2023-05-10T12:26:17;2.28;;;2.08;;
11711;SDS011;5912;51.034;6.984;2023-05-10T12:28:43;2.67;;;2.47;;
11711;SDS011;5912;51.034;6.984;2023-05-10T12:31:09;2.42;;;2.05;;
11711;SDS011;5912;51.034;6.984;2023-05-10T12:33:43;2.22;;;1.92;;
11711;SDS011;5912;51.034;6.984;2023-05-10T12:36:10;2.20;;;1.67;;
11711;SDS011;5912;51.034;6.984;2023-05-10T12:38:43;1.40;;;1.30;;
11711;SDS011;5912;51.034;6.984;2023-05-10T12:41:16;3.03;;;2.08;;
11711;SDS011;5912;51.034;6.984;2023-05-10T12:43:42;1.98;;;1.70;;
11711;SDS011;5912;51.034;6.984;2023-05-10T12:46:09;2.10;;;1.70;;
11711;SDS011;5912;51.034;6.984;2023-05-10T12:48:36;2.97;;;1.67;;
11711;SDS011;5912;51.034;6.984;2023-05-10T12:51:03;2.58;;;1.30;;
11711;SDS011;5912;51.034;6.984;2023-05-10T12:53:29;1.75;;;1.27;;
11711;SDS011;5912;51.034;6.984;2023-05-10T12:55:55;1.70;;;1.50;;
11711;SDS011;5912;51.034;6.984;2023-05-10T12:58:23;1.73;;;1.35;;
11711;SDS011;5912;51.034;6.984;2023-05-10T13:00:49;2.13;;;1.58;;
11711;SDS011;5912;51.034;6.984;2023-05-10T13:03:16;1.80;;;1.48;;
11711;SDS011;5912;51.034;6.984;2023-05-10T13:05:41;3.50;;;1.52;;
11711;SDS011;5912;51.034;6.984;2023-05-10T13:08:07;1.55;;;1.35;;
11711;SDS011;5912;51.034;6.984;2023-05-10T13:10:32;1.40;;;1.30;;
11711;SDS011;5912;51.034;6.984;2023-05-10T13:12:58;1.52;;;1.42;;
11711;SDS011;5912;51.034;6.984;2023-05-10T13:15:24;2.90;;;1.80;;
11711;SDS011;5912;51.034;6.984;2023-05-10T13:17:50;2.35;;;1.80;;
11711;SDS011;5912;51.034;6.984;2023-05-10T13:20:16;1.55;;;1.40;;
11711;SDS011;5912;51.034;6.984;2023-05-10T13:22:42;1.38;;;1.27;;
11711;SDS011;5912;51.034;6.984;2023-05-10T13:25:09;1.48;;;1.38;;
11711;SDS011;5912;51.034;6.984;2023-05-10T13:27:35;1.30;;;1.10;;
11711;SDS011;5912;51.034;6.984;2023-05-10T13:30:01;1.75;;;1.50;;
11711;SDS011;5912;51.034;6.984;2023-05-10T13:32:28;1.20;;;1.10;;
11711;SDS011;5912;51.034;6.984;2023-05-10T13:34:54;1.17;;;1.00;;
11711;SDS011;5912;51.034;6.984;2023-05-10T13:37:19;1.65;;;1.33;;
11711;SDS011;5912;51.034;6.984;2023-05-10T13:39:45;1.35;;;0.90;;
11711;SDS011;5912;51.034;6.984;2023-05-10T13:42:10;1.98;;;1.25;;
11711;SDS011;5912;51.034;6.984;2023-05-10T13:44:36;1.58;;;1.20;;
11711;SDS011;5912;51.034;6.984;2023-05-10T13:47:01;1.40;;;1.30;;
11711;SDS011;5912;51.034;6.984;2023-05-10T13:49:26;1.52;;;1.35;;
11711;SDS011;5912;51.034;6.984;2023-05-10T13:51:52;1.27;;;1.17;;
11711;SDS011;5912;51.034;6.984;2023-05-10T13:54:17;1.67;;;1.20;;
11711;SDS011;5912;51.034;6.984;2023-05-10T13:56:44;1.92;;;1.05;;
11711;SDS011;5912;51.034;6.984;2023-05-10T13:59:12;1.38;;;1.00;;
11711;SDS011;5912;51.034;6.984;2023-05-10T14:01:37;1.40;;;1.30;;
11711;SDS011;5912;51.034;6.984;2023-05-10T14:04:03;1.40;;;1.25;;
11711;SDS011;5912;51.034;6.984;2023-05-10T14:06:28;1.55;;;1.42;;
11711;SDS011;5912;51.034;6.984;2023-05-10T14:08:53;1.20;;;1.10;;
11711;SDS011;5912;51.034;6.984;2023-05-10T14:11:19;1.40;;;1.30;;
11711;SDS011;5912;51.034;6.984;2023-05-10T14:13:44;1.33;;;1.23;;
11711;SDS011;5912;51.034;6.984;2023-05-10T14:16:10;1.63;;;1.10;;
11711;SDS011;5912;51.034;6.984;2023-05-10T14:18:36;1.33;;;1.20;;
11711;SDS011;5912;51.034;6.984;2023-05-10T14:23:55;1.30;;;1.20;;
11711;SDS011;5912;51.034;6.984;2023-05-10T14:26:21;3.10;;;1.90;;
11711;SDS011;5912;51.034;6.984;2023-05-10T14:28:46;1.58;;;1.33;;
11711;SDS011;5912;51.034;6.984;2023-05-10T14:31:12;3.05;;;1.45;;
11711;SDS011;5912;51.034;6.984;2023-05-10T14:33:37;2.00;;;1.63;;
11711;SDS011;5912;51.034;6.984;2023-05-10T14:36:02;2.13;;;1.20;;
11711;SDS011;5912;51.034;6.984;2023-05-10T14:38:28;3.92;;;2.55;;
11711;SDS011;5912;51.034;6.984;2023-05-10T14:40:54;5.72;;;4.45;;
11711;SDS011;5912;51.034;6.984;2023-05-10T14:43:19;5.07;;;4.32;;
11711;SDS011;5912;51.034;6.984;2023-05-10T14:45:45;5.25;;;4.65;;
11711;SDS011;5912;51.034;6.984;2023-05-10T14:48:10;7.32;;;5.18;;
11711;SDS011;5912;51.034;6.984;2023-05-10T14:50:37;6.10;;;4.60;;
11711;SDS011;5912;51.034;6.984;2023-05-10T14:53:02;5.57;;;4.65;;
11711;SDS011;5912;51.034;6.984;2023-05-10T14:55:27;5.38;;;4.03;;
11711;SDS011;5912;51.034;6.984;2023-05-10T14:57:53;5.10;;;4.20;;
11711;SDS011;5912;51.034;6.984;2023-05-10T15:00:19;6.18;;;3.97;;
11711;SDS011;5912;51.034;6.984;2023-05-10T15:02:44;9.40;;;4.78;;
11711;SDS011;5912;51.034;6.984;2023-05-10T15:05:10;4.65;;;3.95;;
11711;SDS011;5912;51.034;6.984;2023-05-10T15:07:35;5.90;;;4.30;;
11711;SDS011;5912;51.034;6.984;2023-05-10T15:10:00;4.78;;;4.10;;
11711;SDS011;5912;51.034;6.984;2023-05-10T15:12:26;5.28;;;4.03;;
11711;SDS011;5912;51.034;6.984;2023-05-10T15:14:51;4.18;;;3.78;;
11711;SDS011;5912;51.034;6.984;2023-05-10T15:17:16;5.00;;;3.75;;
11711;SDS011;5912;51.034;6.984;2023-05-10T15:19:42;4.25;;;3.55;;
11711;SDS011;5912;51.034;6.984;2023-05-10T15:22:07;4.40;;;3.30;;
11711;SDS011;5912;51.034;6.984;2023-05-10T15:24:33;4.97;;;3.75;;
11711;SDS011;5912;51.034;6.984;2023-05-10T15:26:59;4.55;;;3.33;;
11711;SDS011;5912;51.034;6.984;2023-05-10T15:29:25;5.05;;;3.78;;
11711;SDS011;5912;51.034;6.984;2023-05-10T15:31:50;4.47;;;3.60;;
11711;SDS011;5912;51.034;6.984;2023-05-10T15:34:16;4.03;;;3.30;;
11711;SDS011;5912;51.034;6.984;2023-05-10T15:36:42;4.07;;;2.80;;